Archival Weather

Aeroparque Jorge Newbery

Buenos Aires, Argentina (SABE)

Report from: Sunday, March 19, 2023 5:00 AM -03
Current time: Sunday, July 14, 2024 7:09 AM -03

Current weather – Weather history – Daily summaries
Weather forecast

Temperature26.0°C (78.8°F)
Dew point23.0°C (73.4°F)
Winds 4 kts (2.1 m/s, 4.6 mph) East-Northeast (60°)
Visibility6.2 mi. (10 km)
Clouds Few clouds 1,300 ft. (396 m)
Ceiling: Broken clouds 5,000 ft. (1,524 m)
Altimeter29.85 in.Hg (1011 mB)
Relative humidity84 %
Density altitude1,724 ft. (525 m)
Remarks No significant changes expected in the next two hours
Flight conditions Visual Meteorological Conditions
Raw dataSABE 190800Z 06004KT 9999 FEW013 BKN050 26/23 Q1011 NOSIG RMK PP000
An error has occurred. This application may no longer respond until reloaded. Reload 🗙